createdAt,value
2019-04-14T00:01:02.206Z,51.60
2019-04-14T00:03:30.441Z,51.80
2019-04-14T00:05:58.417Z,52.00
2019-04-14T00:08:24.574Z,51.70
2019-04-14T00:10:50.829Z,51.60
2019-04-14T00:13:17.485Z,51.70
2019-04-14T00:15:47.096Z,51.70
2019-04-14T00:18:11.849Z,51.80
2019-04-14T00:20:38.272Z,51.80
2019-04-14T00:23:04.450Z,51.70
2019-04-14T00:25:30.532Z,51.80
2019-04-14T00:27:56.576Z,51.50
2019-04-14T00:30:23.371Z,51.40
2019-04-14T00:32:51.288Z,51.60
2019-04-14T00:35:38.491Z,51.50
2019-04-14T00:38:15.480Z,51.60
2019-04-14T00:40:49.758Z,51.20
2019-04-14T00:43:26.885Z,51.30
2019-04-14T00:46:04.347Z,51.30
2019-04-14T00:48:30.468Z,51.30
2019-04-14T00:50:56.436Z,51.30
2019-04-14T00:53:22.878Z,51.50
2019-04-14T00:55:49.108Z,51.60
2019-04-14T00:58:15.237Z,51.40
2019-04-14T01:00:41.183Z,51.50
2019-04-14T01:03:07.128Z,51.60
2019-04-14T01:05:34.490Z,51.70
2019-04-14T01:08:01.018Z,52.00
2019-04-14T01:10:27.878Z,51.90
2019-04-14T01:12:53.977Z,52.40
2019-04-14T01:15:20.142Z,52.70
2019-04-14T01:17:46.222Z,52.40
2019-04-14T01:20:12.534Z,52.20
2019-04-14T01:22:38.467Z,52.30
2019-04-14T01:25:06.399Z,52.40
2019-04-14T01:27:32.581Z,52.60
2019-04-14T01:30:00.344Z,52.20
2019-04-14T01:32:26.504Z,52.10
2019-04-14T01:34:53.904Z,52.70
2019-04-14T01:37:20.335Z,52.50
2019-04-14T01:39:46.287Z,52.40
2019-04-14T01:42:12.203Z,52.50
2019-04-14T01:44:39.487Z,52.40
2019-04-14T01:47:05.627Z,52.50
2019-04-14T01:49:31.573Z,52.70
2019-04-14T01:52:16.741Z,52.40
2019-04-14T01:54:45.338Z,52.60
2019-04-14T01:57:16.019Z,52.50
2019-04-14T01:59:42.140Z,52.70
2019-04-14T02:02:10.051Z,52.30
2019-04-14T02:04:36.088Z,52.50
2019-04-14T02:07:02.039Z,52.20
2019-04-14T02:09:29.364Z,52.50
2019-04-14T02:11:55.447Z,52.60
2019-04-14T02:14:21.400Z,52.60
2019-04-14T02:16:52.621Z,52.70
2019-04-14T02:19:15.420Z,52.60
2019-04-14T02:21:41.418Z,52.70
2019-04-14T02:24:07.354Z,52.70
2019-04-14T02:26:33.299Z,52.60
2019-04-14T02:28:59.312Z,52.80
2019-04-14T02:31:48.503Z,52.70
2019-04-14T02:34:27.724Z,52.90
2019-04-14T02:36:48.036Z,52.90
2019-04-14T02:41:46.772Z,53.00
2019-04-14T02:44:15.813Z,53.10
2019-04-14T02:49:04.558Z,53.10
2019-04-14T02:51:33.591Z,53.20
2019-04-14T02:56:49.885Z,53.40
2019-04-14T03:01:35.317Z,53.50
2019-04-14T03:03:48.889Z,53.50
2019-04-14T03:06:17.751Z,53.50
2019-04-14T03:08:52.001Z,53.50
2019-04-14T03:11:20.653Z,53.60
2019-04-14T03:13:45.540Z,53.60
2019-04-14T03:16:13.716Z,53.60
2019-04-14T03:21:30.290Z,53.70
2019-04-14T03:26:41.949Z,53.70
2019-04-14T03:29:21.339Z,53.60
2019-04-14T03:32:07.615Z,53.90
2019-04-14T03:39:36.564Z,53.80
2019-04-14T03:41:38.646Z,54.00
2019-04-14T03:44:14.440Z,54.10
2019-04-14T03:46:49.073Z,54.10
2019-04-14T03:49:10.008Z,54.30
2019-04-14T03:51:43.013Z,54.50
2019-04-14T03:53:59.115Z,54.50
2019-04-14T03:56:07.070Z,54.50
2019-04-14T03:58:31.464Z,54.60
2019-04-14T04:00:57.653Z,54.60
2019-04-14T04:03:23.910Z,54.60
2019-04-14T04:05:50.025Z,54.70
2019-04-14T04:08:16.001Z,54.70
2019-04-14T04:10:53.267Z,54.90
2019-04-14T04:13:19.835Z,54.90
2019-04-14T04:15:45.878Z,54.90
2019-04-14T04:18:17.767Z,55.60
2019-04-14T04:20:52.453Z,55.20
2019-04-14T04:23:29.859Z,55.20
2019-04-14T04:25:57.688Z,55.30
2019-04-14T04:28:34.444Z,55.50
2019-04-14T04:31:11.368Z,55.50
2019-04-14T04:33:54.491Z,55.60
2019-04-14T04:36:51.497Z,55.60
2019-04-14T04:39:19.366Z,55.60
2019-04-14T04:41:45.416Z,55.90
2019-04-14T04:44:11.573Z,56.10
2019-04-14T04:46:37.711Z,56.20
2019-04-14T04:49:11.751Z,56.20
2019-04-14T04:51:31.580Z,56.20
2019-04-14T04:53:57.605Z,56.40
2019-04-14T04:56:23.531Z,57.20
2019-04-14T04:58:50.178Z,56.90
2019-04-14T05:01:16.743Z,56.80
2019-04-14T05:03:42.932Z,56.80
2019-04-14T05:06:28.765Z,56.60
2019-04-14T05:09:05.857Z,56.80
2019-04-14T05:11:52.595Z,57.00
2019-04-14T05:14:20.210Z,56.90
2019-04-14T05:16:46.180Z,57.00
2019-04-14T05:19:23.007Z,57.00
2019-04-14T05:21:40.943Z,57.00
2019-04-14T05:24:07.247Z,57.20
2019-04-14T05:26:33.196Z,57.20
2019-04-14T05:28:59.186Z,57.50
2019-04-14T05:31:27.769Z,57.30
2019-04-14T05:33:53.325Z,57.40
2019-04-14T05:36:39.305Z,57.60
2019-04-14T05:39:05.251Z,57.50
2019-04-14T05:41:31.197Z,57.90
2019-04-14T05:44:01.162Z,58.80
2019-04-14T05:46:25.301Z,59.30
2019-04-14T05:48:51.533Z,60.00
2019-04-14T05:51:19.932Z,60.40
2019-04-14T05:53:45.845Z,62.00
2019-04-14T05:56:12.225Z,64.20
2019-04-14T05:58:38.340Z,66.40
2019-04-14T06:01:04.756Z,68.50
2019-04-14T06:03:32.052Z,69.40
2019-04-14T06:05:58.191Z,69.30
2019-04-14T06:08:24.163Z,70.30
2019-04-14T06:10:50.108Z,71.30
2019-04-14T06:13:16.052Z,71.90
2019-04-14T06:15:41.974Z,71.20
2019-04-14T06:18:07.911Z,70.40
2019-04-14T06:20:33.876Z,71.30
2019-04-14T06:22:59.833Z,70.90
2019-04-14T06:25:25.801Z,70.60
2019-04-14T06:27:51.827Z,69.10
2019-04-14T06:30:19.796Z,68.40
2019-04-14T06:32:46.529Z,69.00
2019-04-14T06:35:26.612Z,67.90
2019-04-14T06:38:06.499Z,66.30
2019-04-14T06:40:34.446Z,66.00
2019-04-14T06:43:00.432Z,66.20
2019-04-14T06:45:26.360Z,65.70
2019-04-14T06:47:52.469Z,65.80
2019-04-14T06:50:18.483Z,65.30
2019-04-14T06:52:44.445Z,66.00
2019-04-14T06:55:10.413Z,65.70
2019-04-14T06:57:36.344Z,65.90
2019-04-14T07:00:02.754Z,65.10
2019-04-14T07:02:28.812Z,63.90
2019-04-14T07:04:54.858Z,63.60
2019-04-14T07:07:20.971Z,63.40
2019-04-14T07:09:46.968Z,63.20
2019-04-14T07:12:13.115Z,63.20
2019-04-14T07:14:39.245Z,63.30
2019-04-14T07:17:05.291Z,62.90
2019-04-14T07:20:01.310Z,61.80
2019-04-14T07:22:18.981Z,62.30
2019-04-14T07:24:44.946Z,62.70
2019-04-14T07:27:10.927Z,62.60
2019-04-14T07:29:38.770Z,61.90
2019-04-14T07:32:15.381Z,61.40
2019-04-14T07:34:45.939Z,61.00
2019-04-14T07:37:32.256Z,59.50
2019-04-14T07:40:03.036Z,60.50
2019-04-14T07:42:43.064Z,59.90
2019-04-14T07:45:16.548Z,59.80
2019-04-14T07:47:50.317Z,60.10
2019-04-14T07:50:20.919Z,59.80
2019-04-14T07:52:48.753Z,59.60
2019-04-14T07:55:16.587Z,59.30
2019-04-14T07:57:44.692Z,59.30
2019-04-14T08:00:24.499Z,60.30
2019-04-14T08:02:55.004Z,60.20
2019-04-14T08:05:28.591Z,60.20
2019-04-14T08:07:54.540Z,60.10
2019-04-14T08:10:20.596Z,58.50
2019-04-14T08:12:46.662Z,57.50
2019-04-14T08:15:12.764Z,59.10
2019-04-14T08:17:38.829Z,59.10
2019-04-14T08:20:05.573Z,58.00
2019-04-14T08:22:31.522Z,56.80
2019-04-14T08:24:57.550Z,55.70
2019-04-14T08:27:23.484Z,56.50
2019-04-14T08:29:49.948Z,56.30
2019-04-14T08:32:16.047Z,55.40
2019-04-14T08:34:42.068Z,57.00
2019-04-14T08:37:08.104Z,56.80
2019-04-14T08:39:34.091Z,56.40
2019-04-14T08:42:04.803Z,55.70
2019-04-14T08:44:35.273Z,55.50
2019-04-14T08:47:03.281Z,56.20
2019-04-14T08:49:43.362Z,57.00
2019-04-14T08:52:17.160Z,57.50
2019-04-14T08:54:59.989Z,57.00
2019-04-14T08:57:33.807Z,56.20
2019-04-14T09:00:13.537Z,56.00
2019-04-14T09:02:44.144Z,56.10
2019-04-14T09:05:12.166Z,54.80
2019-04-14T09:07:51.936Z,53.10
2019-04-14T09:10:19.796Z,52.30
2019-04-14T09:12:50.634Z,53.50
2019-04-14T09:15:16.690Z,53.60
2019-04-14T09:17:42.726Z,52.40
2019-04-14T09:20:08.919Z,53.20
2019-04-14T09:22:34.980Z,53.00
2019-04-14T09:25:01.010Z,49.90
2019-04-14T09:27:26.959Z,52.30
2019-04-14T09:29:53.161Z,52.10
2019-04-14T09:32:19.370Z,52.70
2019-04-14T09:34:45.366Z,50.70
2019-04-14T09:37:12.250Z,49.70
2019-04-14T09:39:38.377Z,51.40
2019-04-14T09:42:04.305Z,52.20
2019-04-14T09:44:30.273Z,51.60
2019-04-14T09:46:56.236Z,51.20
2019-04-14T09:49:22.163Z,52.20
2019-04-14T09:51:48.118Z,50.50
2019-04-14T09:54:14.054Z,50.60
2019-04-14T09:56:40.211Z,50.60
2019-04-14T09:59:06.184Z,49.10
2019-04-14T10:01:32.384Z,50.50
2019-04-14T10:03:58.691Z,50.80
2019-04-14T10:06:24.803Z,50.50
2019-04-14T10:08:50.849Z,50.60
2019-04-14T10:11:16.779Z,50.70
2019-04-14T10:13:42.729Z,50.10
2019-04-14T10:16:08.655Z,49.60
2019-04-14T10:18:34.604Z,49.40
2019-04-14T10:21:00.527Z,49.30
2019-04-14T10:23:26.480Z,50.20
2019-04-14T10:25:52.411Z,50.10
2019-04-14T10:28:18.385Z,44.50
2019-04-14T10:30:44.327Z,44.60
2019-04-14T10:33:10.263Z,45.40
2019-04-14T10:35:36.285Z,46.80
2019-04-14T10:38:02.225Z,45.30
2019-04-14T10:40:28.183Z,48.00
2019-04-14T10:42:54.203Z,48.20
2019-04-14T10:45:20.242Z,48.80
2019-04-14T10:47:46.332Z,46.80
2019-04-14T10:50:30.326Z,48.40
2019-04-14T10:52:46.249Z,46.50
2019-04-14T10:55:12.236Z,48.20
2019-04-14T10:57:38.285Z,47.80
2019-04-14T11:00:07.577Z,48.30
2019-04-14T11:02:34.000Z,48.60
2019-04-14T11:05:00.022Z,46.80
2019-04-14T11:07:27.751Z,46.70
2019-04-14T11:09:53.966Z,46.70
2019-04-14T11:12:20.063Z,46.30
2019-04-14T11:14:45.993Z,45.60
2019-04-14T11:17:11.916Z,46.60
2019-04-14T11:19:37.975Z,47.30
2019-04-14T11:22:03.922Z,47.50
2019-04-14T11:24:30.267Z,46.20
2019-04-14T11:26:56.199Z,47.80
2019-04-14T11:29:22.151Z,48.30
2019-04-14T11:31:50.036Z,47.90
2019-04-14T11:34:17.875Z,46.00
2019-04-14T11:37:04.033Z,46.40
2019-04-14T11:39:29.988Z,45.90
2019-04-14T11:41:55.927Z,42.70
2019-04-14T11:44:21.883Z,44.10
2019-04-14T11:46:47.919Z,44.80
2019-04-14T11:49:13.822Z,46.70
2019-04-14T11:51:39.804Z,47.00
2019-04-14T11:54:05.731Z,47.20
2019-04-14T11:56:31.661Z,46.30
2019-04-14T11:58:57.613Z,46.10
2019-04-14T12:01:40.385Z,45.00
2019-04-14T12:04:14.287Z,45.70
2019-04-14T12:06:51.264Z,45.80
2019-04-14T12:09:19.168Z,46.60
2019-04-14T12:11:45.249Z,45.40
2019-04-14T12:14:11.250Z,46.10
2019-04-14T12:16:37.405Z,47.30
2019-04-14T12:19:03.336Z,46.70
2019-04-14T12:21:29.279Z,45.50
2019-04-14T12:23:55.199Z,45.90
2019-04-14T12:26:21.131Z,45.30
2019-04-14T12:28:47.230Z,45.50
2019-04-14T12:31:13.359Z,46.00
2019-04-14T12:33:39.316Z,46.70
2019-04-14T12:36:07.160Z,46.90
2019-04-14T12:38:33.151Z,44.80
2019-04-14T12:41:00.981Z,44.70
2019-04-14T12:43:32.117Z,46.00
2019-04-14T12:46:02.830Z,46.20
2019-04-14T12:48:36.711Z,45.50
2019-04-14T12:51:04.904Z,44.80
2019-04-14T12:53:31.003Z,44.10
2019-04-14T12:55:56.951Z,45.10
2019-04-14T12:58:24.799Z,45.60
2019-04-14T13:00:52.644Z,45.60
2019-04-14T13:03:19.282Z,44.90
2019-04-14T13:05:45.228Z,44.30
2019-04-14T13:08:11.193Z,45.50
2019-04-14T13:10:37.352Z,45.40
2019-04-14T13:13:03.442Z,43.50
2019-04-14T13:15:29.461Z,44.30
2019-04-14T13:17:55.499Z,44.80
2019-04-14T13:20:21.457Z,45.30
2019-04-14T13:22:47.503Z,45.70
2019-04-14T13:25:13.454Z,44.90
2019-04-14T13:27:39.408Z,45.20
2019-04-14T13:30:06.552Z,45.70
2019-04-14T13:32:36.136Z,45.50
2019-04-14T13:35:00.369Z,46.10
2019-04-14T13:37:26.320Z,47.00
2019-04-14T13:39:52.270Z,46.70
2019-04-14T13:42:18.331Z,44.60
2019-04-14T13:44:44.399Z,45.40
2019-04-14T13:47:10.348Z,44.50
2019-04-14T13:49:36.291Z,44.90
2019-04-14T13:52:02.244Z,43.50
2019-04-14T13:54:28.172Z,44.20
2019-04-14T13:56:54.162Z,43.90
2019-04-14T13:59:20.276Z,43.40
2019-04-14T14:01:46.276Z,43.90
2019-04-14T14:04:12.317Z,44.20
2019-04-14T14:06:38.307Z,44.80
2019-04-14T14:09:06.928Z,44.90
2019-04-14T14:11:34.759Z,43.60
2019-04-14T14:14:02.600Z,44.80
2019-04-14T14:16:36.114Z,45.30
2019-04-14T14:19:03.987Z,45.50
2019-04-14T14:21:31.927Z,44.50
2019-04-14T14:23:59.795Z,43.90
2019-04-14T14:26:39.719Z,44.40
2019-04-14T14:29:05.671Z,45.40
2019-04-14T14:31:31.606Z,45.00
2019-04-14T14:33:57.546Z,45.60
2019-04-14T14:36:23.497Z,45.50
2019-04-14T14:38:49.532Z,45.60
2019-04-14T14:41:16.760Z,45.40
2019-04-14T14:43:42.716Z,45.60
2019-04-14T14:46:16.216Z,45.70
2019-04-14T14:48:50.211Z,46.10
2019-04-14T14:51:34.857Z,45.80
2019-04-14T14:54:00.813Z,45.90
2019-04-14T14:56:26.898Z,45.10
2019-04-14T14:58:52.835Z,44.70
2019-04-14T15:01:19.011Z,45.10
2019-04-14T15:03:44.988Z,45.60
2019-04-14T15:06:10.928Z,45.60
2019-04-14T15:08:36.869Z,45.70
2019-04-14T15:11:04.413Z,46.10
2019-04-14T15:13:30.563Z,46.30
2019-04-14T15:15:56.499Z,46.10
2019-04-14T15:18:22.493Z,46.40
2019-04-14T15:20:48.479Z,46.10
2019-04-14T15:23:24.364Z,46.20
2019-04-14T15:25:42.413Z,46.10
2019-04-14T15:28:08.381Z,45.80
2019-04-14T15:30:34.540Z,45.90
2019-04-14T15:33:00.489Z,45.80
2019-04-14T15:35:27.336Z,47.20
2019-04-14T15:37:53.343Z,46.30
2019-04-14T15:40:19.390Z,46.10
2019-04-14T15:42:45.394Z,46.20
2019-04-14T15:45:13.836Z,46.30
2019-04-14T15:47:39.334Z,46.20
2019-04-14T15:50:05.723Z,46.50
2019-04-14T15:52:31.958Z,46.10
2019-04-14T15:54:57.979Z,46.00
2019-04-14T15:57:37.823Z,46.20
2019-04-14T16:00:10.084Z,46.40
2019-04-14T16:02:38.100Z,46.10
2019-04-14T16:05:14.899Z,46.30
2019-04-14T16:07:59.531Z,46.50
2019-04-14T16:10:28.801Z,46.80
2019-04-14T16:13:02.653Z,46.80
2019-04-14T16:15:36.425Z,46.90
2019-04-14T16:18:06.996Z,47.10
2019-04-14T16:20:37.921Z,47.20
2019-04-14T16:23:03.888Z,47.30
2019-04-14T16:25:48.755Z,47.10
2019-04-14T16:28:31.782Z,47.20
2019-04-14T16:31:02.537Z,47.30
2019-04-14T16:33:46.941Z,47.20
2019-04-14T16:36:13.259Z,47.80
2019-04-14T16:38:39.331Z,48.20
2019-04-14T16:41:06.377Z,48.10
2019-04-14T16:43:32.422Z,48.30
2019-04-14T16:45:58.342Z,48.40
2019-04-14T16:48:24.278Z,48.00
2019-04-14T16:50:50.737Z,48.10
2019-04-14T16:53:19.323Z,48.80
2019-04-14T16:55:47.946Z,48.20
2019-04-14T16:58:22.233Z,48.40
2019-04-14T17:00:59.041Z,48.40
2019-04-14T17:03:25.018Z,49.20
2019-04-14T17:05:51.049Z,49.00
2019-04-14T17:08:17.144Z,48.70
2019-04-14T17:10:43.222Z,48.70
2019-04-14T17:13:09.164Z,49.60
2019-04-14T17:15:45.840Z,50.70
2019-04-14T17:18:29.045Z,49.90
2019-04-14T17:20:59.555Z,49.60
2019-04-14T17:23:33.194Z,50.50
2019-04-14T17:26:04.081Z,50.00
2019-04-14T17:28:48.368Z,50.00
2019-04-14T17:31:28.432Z,51.20
2019-04-14T17:34:12.834Z,51.20
2019-04-14T17:36:57.691Z,50.90
2019-04-14T17:39:28.436Z,50.80
2019-04-14T17:42:02.358Z,51.80
2019-04-14T17:44:30.214Z,52.50
2019-04-14T17:47:00.933Z,52.70
2019-04-14T17:49:28.769Z,52.90
2019-04-14T17:52:13.240Z,52.40
2019-04-14T17:54:57.891Z,53.30
2019-04-14T17:57:42.651Z,52.80
2019-04-14T18:00:13.428Z,52.80
2019-04-14T18:02:59.464Z,53.40
2019-04-14T18:05:39.488Z,54.40
2019-04-14T18:08:24.191Z,54.50
2019-04-14T18:10:52.050Z,53.40
2019-04-14T18:13:19.892Z,54.10
2019-04-14T18:15:50.967Z,54.20
2019-04-14T18:18:25.020Z,55.40
2019-04-14T18:20:52.870Z,56.20
2019-04-14T18:23:18.845Z,55.00
2019-04-14T18:25:44.848Z,55.90
2019-04-14T18:28:12.779Z,55.80
2019-04-14T18:30:40.637Z,56.00
2019-04-14T18:33:11.528Z,55.80
2019-04-14T18:35:42.268Z,56.10
2019-04-14T18:38:26.928Z,56.50
2019-04-14T18:41:12.471Z,56.70
2019-04-14T18:43:49.345Z,56.80
2019-04-14T18:46:35.148Z,56.50
2019-04-14T18:49:09.180Z,56.70
2019-04-14T18:51:37.011Z,56.90
2019-04-14T18:54:04.873Z,56.80
2019-04-14T18:56:47.736Z,57.00
2019-04-14T18:59:30.673Z,57.10
2019-04-14T19:01:57.108Z,57.10
2019-04-14T19:04:23.208Z,57.20
2019-04-14T19:06:49.394Z,57.20
2019-04-14T19:09:15.528Z,57.50
2019-04-14T19:12:06.098Z,57.90
2019-04-14T19:14:38.230Z,57.40
2019-04-14T19:17:06.311Z,57.60
2019-04-14T19:19:34.391Z,57.60
2019-04-14T19:22:00.438Z,57.90
2019-04-14T19:24:26.520Z,57.90
2019-04-14T19:26:52.536Z,58.10
2019-04-14T19:29:18.494Z,58.00
2019-04-14T19:31:44.439Z,58.80
2019-04-14T19:34:10.533Z,58.40
2019-04-14T19:36:36.802Z,58.50
2019-04-14T19:39:06.803Z,58.90
2019-04-14T19:41:33.757Z,59.20
2019-04-14T19:43:59.945Z,59.10
2019-04-14T19:46:26.142Z,59.60
2019-04-14T19:48:52.272Z,59.60
2019-04-14T19:51:18.313Z,59.90
2019-04-14T19:53:44.534Z,60.20
2019-04-14T19:56:10.493Z,60.40
2019-04-14T19:58:36.508Z,60.60
2019-04-14T20:01:22.451Z,60.90
2019-04-14T20:03:48.480Z,61.20
2019-04-14T20:06:17.540Z,61.70
2019-04-14T20:08:43.548Z,61.90
2019-04-14T20:11:09.587Z,61.90
2019-04-14T20:13:37.484Z,62.00
2019-04-14T20:16:05.421Z,62.20
2019-04-14T20:18:45.116Z,62.40
2019-04-14T20:21:12.961Z,63.40
2019-04-14T20:23:43.429Z,62.40
2019-04-14T20:26:11.263Z,62.90
2019-04-14T20:28:41.766Z,62.90
2019-04-14T20:31:24.906Z,64.40
2019-04-14T20:33:51.056Z,64.80
2019-04-14T20:36:17.171Z,65.40
2019-04-14T20:38:43.152Z,65.00
2019-04-14T20:41:09.191Z,65.20
2019-04-14T20:43:35.231Z,66.00
2019-04-14T20:46:01.402Z,66.00
2019-04-14T20:48:27.319Z,66.30
2019-04-14T20:50:53.281Z,65.90
2019-04-14T20:53:19.329Z,65.90
2019-04-14T20:55:47.174Z,66.80
2019-04-14T20:58:13.216Z,67.00
2019-04-14T21:00:39.244Z,66.60
2019-04-14T21:03:22.360Z,67.40
2019-04-14T21:05:51.732Z,67.50
2019-04-14T21:08:36.402Z,67.60
2019-04-14T21:11:13.173Z,67.60
2019-04-14T21:13:41.025Z,67.40
2019-04-14T21:16:12.865Z,67.90
2019-04-14T21:18:56.684Z,68.90
2019-04-14T21:21:24.521Z,68.10
2019-04-14T21:23:52.445Z,68.40
2019-04-14T21:26:37.102Z,68.30
2019-04-14T21:29:05.106Z,68.60
2019-04-14T21:31:35.840Z,68.60
2019-04-14T21:34:09.408Z,69.60
2019-04-14T21:36:37.261Z,71.20
2019-04-14T21:39:23.820Z,70.60
2019-04-14T21:41:50.555Z,70.60
2019-04-14T21:44:16.568Z,70.00
2019-04-14T21:46:42.539Z,70.30
2019-04-14T21:49:08.499Z,70.20
2019-04-14T21:51:52.979Z,72.40
2019-04-14T21:54:19.647Z,72.60
2019-04-14T21:56:47.535Z,71.90
2019-04-14T21:59:24.346Z,72.20
2019-04-14T22:01:57.861Z,71.80
2019-04-14T22:04:28.616Z,72.00
2019-04-14T22:06:59.607Z,71.90
2019-04-14T22:09:33.411Z,72.00
2019-04-14T22:12:01.297Z,72.50
2019-04-14T22:14:27.239Z,73.30
2019-04-14T22:16:53.188Z,73.10
2019-04-14T22:19:20.255Z,73.30
2019-04-14T22:21:47.580Z,73.90
2019-04-14T22:24:13.759Z,73.80
2019-04-14T22:26:39.692Z,73.60
2019-04-14T22:29:05.622Z,75.50
2019-04-14T22:31:31.569Z,75.10
2019-04-14T22:33:57.512Z,74.30
2019-04-14T22:36:23.445Z,74.60
2019-04-14T22:38:49.401Z,76.10
2019-04-14T22:41:15.420Z,77.10
2019-04-14T22:43:41.339Z,78.10
2019-04-14T22:46:07.324Z,79.40
2019-04-14T22:48:33.336Z,81.00
2019-04-14T22:50:59.407Z,82.60
2019-04-14T22:53:25.430Z,82.50
2019-04-14T22:55:51.370Z,83.90
2019-04-14T22:58:17.300Z,83.20
2019-04-14T23:00:51.071Z,83.90
2019-04-14T23:03:24.583Z,85.60
2019-04-14T23:05:52.420Z,85.80
2019-04-14T23:08:32.579Z,86.90
2019-04-14T23:11:00.400Z,89.00
2019-04-14T23:13:30.913Z,89.30
2019-04-14T23:15:58.827Z,88.10
2019-04-14T23:18:26.685Z,89.80
2019-04-14T23:20:54.721Z,88.10
2019-04-14T23:23:37.552Z,89.40
2019-04-14T23:26:03.665Z,90.30
2019-04-14T23:28:29.592Z,89.70
2019-04-14T23:30:55.523Z,89.90
2019-04-14T23:33:21.481Z,90.00
2019-04-14T23:35:47.441Z,90.00
2019-04-14T23:38:13.499Z,88.90
2019-04-14T23:40:39.461Z,90.70
2019-04-14T23:43:05.414Z,90.90
2019-04-14T23:45:31.356Z,90.30
2019-04-14T23:47:57.303Z,90.50
2019-04-14T23:50:23.239Z,90.50
2019-04-14T23:52:49.184Z,90.70
2019-04-14T23:55:15.143Z,90.10
2019-04-14T23:57:41.071Z,90.00
